Time;durP1;ratioP1;P1;durP2;ratioP2;P2;SDS_P1;SDS_P2;PMS_P1;PMS_P2;Temp;Humidity;BMP_temperature;BMP_pressure;BME280_temperature;BME280_humidity;BME280_pressure;Samples;Min_cycle;Max_cycle;Signal;HPM_P1;HPM_P2
2023/03/13 00:00:13;;;;;;;;;;;21.30;53.30;;;;;;6154381;28;19922;-53
2023/03/13 00:03:14;;;;;;;;;;;21.50;53.30;;;;;;6154180;28;19922;-54
2023/03/13 00:06:16;;;;;;;;;;;21.10;53.30;;;;;;6153998;28;19978;-53
2023/03/13 00:09:18;;;;;;;;;;;21.20;53.20;;;;;;6152899;29;19926;-53
2023/03/13 00:12:20;;;;;;;;;;;21.30;53.10;;;;;;6154002;28;19922;-53
2023/03/13 00:15:22;;;;;;;;;;;21.30;53.30;;;;;;6153981;28;19922;-52
2023/03/13 00:18:23;;;;;;;;;;;21.20;53.20;;;;;;6153929;28;19930;-52
2023/03/13 00:21:27;;;;;;;;;;;21.20;53.30;;;;;;6153636;28;20024;-51
2023/03/13 00:24:28;;;;;;;;;;;21.50;53.40;;;;;;6152568;29;19930;-52
2023/03/13 00:27:33;;;;;;;;;;;21.80;54.10;;;;;;6153953;28;19923;-52
2023/03/13 00:30:34;;;;;;;;;;;21.20;53.20;;;;;;6153846;28;19929;-50
2023/03/13 00:33:38;;;;;;;;;;;21.00;53.20;;;;;;6153519;28;19922;-52
2023/03/13 00:36:39;;;;;;;;;;;21.30;53.20;;;;;;6153813;28;19929;-52
2023/03/13 00:39:40;;;;;;;;;;;21.50;53.40;;;;;;6153739;28;19922;-53
2023/03/13 00:42:42;;;;;;;;;;;21.30;53.30;;;;;;6153372;28;20327;-49
2023/03/13 00:45:43;;;;;;;;;;;21.10;53.10;;;;;;6153673;28;20343;-53
2023/03/13 00:48:45;;;;;;;;;;;21.10;53.30;;;;;;6153454;29;19965;-53
2023/03/13 00:51:46;;;;;;;;;;;21.30;53.10;;;;;;6152856;28;19961;-53
2023/03/13 00:54:48;;;;;;;;;;;21.20;53.30;;;;;;6154350;28;19922;-51
2023/03/13 00:57:50;;;;;;;;;;;21.70;53.50;;;;;;6153253;28;20256;-53
2023/03/13 01:00:51;;;;;;;;;;;21.50;53.40;;;;;;6153083;28;20375;-53
2023/03/13 01:03:54;;;;;;;;;;;21.20;53.20;;;;;;6153393;28;19930;-52
2023/03/13 01:06:55;;;;;;;;;;;21.20;53.10;;;;;;6153187;29;19922;-54
2023/03/13 01:09:58;;;;;;;;;;;21.10;53.20;;;;;;6152966;28;20009;-53
2023/03/13 01:13:00;;;;;;;;;;;21.50;53.40;;;;;;6153411;28;20021;-53
2023/03/13 01:16:02;;;;;;;;;;;21.10;53.30;;;;;;6152854;28;19930;-54
2023/03/13 01:19:04;;;;;;;;;;;21.20;53.10;;;;;;6153470;28;19922;-52
2023/03/13 01:22:10;;;;;;;;;;;21.20;53.20;;;;;;6153005;28;19922;-54
2023/03/13 01:25:11;;;;;;;;;;;21.80;53.70;;;;;;6152704;28;19922;-53
2023/03/13 01:28:13;;;;;;;;;;;21.70;53.50;;;;;;6152697;28;20401;-52
2023/03/13 01:31:21;;;;;;;;;;;21.20;53.20;;;;;;6152521;29;19929;-53
2023/03/13 01:34:22;;;;;;;;;;;21.60;53.30;;;;;;6152448;28;19922;-53
2023/03/13 01:37:25;;;;;;;;;;;21.50;53.40;;;;;;6152365;28;19922;-52
2023/03/13 01:40:26;;;;;;;;;;;21.10;53.30;;;;;;6152726;28;19954;-53
2023/03/13 01:43:30;;;;;;;;;;;21.50;53.40;;;;;;6152898;28;19970;-49
2023/03/13 01:46:33;;;;;;;;;;;21.50;53.40;;;;;;6151821;29;20375;-51
2023/03/13 01:49:43;;;;;;;;;;;21.40;53.50;;;;;;6152603;28;19923;-53
2023/03/13 01:52:49;;;;;;;;;;;21.20;53.30;;;;;;6152293;28;19966;-54
2023/03/13 01:55:57;;;;;;;;;;;21.30;53.40;;;;;;6152067;28;20025;-53
2023/03/13 01:58:59;;;;;;;;;;;21.20;53.20;;;;;;6151839;28;20279;-51
2023/03/13 02:02:02;;;;;;;;;;;21.30;53.20;;;;;;6151537;28;20294;-52
2023/03/13 02:05:05;;;;;;;;;;;21.00;53.00;;;;;;6151932;28;19953;-53
2023/03/13 02:08:09;;;;;;;;;;;21.30;53.20;;;;;;6151798;28;20280;-53
2023/03/13 02:11:15;;;;;;;;;;;21.30;53.20;;;;;;6152078;28;20326;-51
2023/03/13 02:14:17;;;;;;;;;;;21.40;53.20;;;;;;6151905;28;20438;-50
2023/03/13 02:17:24;;;;;;;;;;;21.20;53.10;;;;;;6150747;29;20343;-53
2023/03/13 02:20:25;;;;;;;;;;;21.30;53.10;;;;;;6150488;28;19929;-51
2023/03/13 02:23:30;;;;;;;;;;;21.20;53.20;;;;;;6152015;28;19930;-52
2023/03/13 02:26:32;;;;;;;;;;;21.30;53.10;;;;;;6151686;28;19922;-53
2023/03/13 02:29:34;;;;;;;;;;;21.60;53.40;;;;;;6152316;28;20379;-53
2023/03/13 02:32:35;;;;;;;;;;;21.20;53.20;;;;;;6151659;29;19993;-53
2023/03/13 02:35:37;;;;;;;;;;;21.20;53.20;;;;;;6151603;28;19926;-51
2023/03/13 02:38:45;;;;;;;;;;;21.50;53.30;;;;;;6151866;28;19922;-51
2023/03/13 02:41:47;;;;;;;;;;;21.10;53.10;;;;;;6151571;28;19922;-52
2023/03/13 02:44:50;;;;;;;;;;;21.40;53.20;;;;;;6151473;28;19926;-51
2023/03/13 02:47:51;;;;;;;;;;;21.20;53.10;;;;;;6151752;28;19937;-54
2023/03/13 02:50:52;;;;;;;;;;;21.50;53.40;;;;;;6151441;28;19922;-53
2023/03/13 02:53:56;;;;;;;;;;;21.50;53.50;;;;;;6152120;28;19976;-53
2023/03/13 02:57:00;;;;;;;;;;;21.20;53.10;;;;;;6151620;28;19981;-53
2023/03/13 03:00:05;;;;;;;;;;;21.70;53.40;;;;;;6149999;29;19922;-53
2023/03/13 03:03:08;;;;;;;;;;;21.20;53.20;;;;;;6150097;29;19922;-53
2023/03/13 03:06:11;;;;;;;;;;;21.10;53.30;;;;;;6151459;28;19929;-53
2023/03/13 03:09:12;;;;;;;;;;;21.30;53.40;;;;;;6151184;28;20375;-51
2023/03/13 03:12:16;;;;;;;;;;;21.30;53.30;;;;;;6151044;28;19929;-52
2023/03/13 03:15:17;;;;;;;;;;;21.30;53.40;;;;;;6150655;29;19945;-51
2023/03/13 03:18:24;;;;;;;;;;;21.30;53.30;;;;;;6151096;28;19923;-52
2023/03/13 03:21:26;;;;;;;;;;;21.40;52.40;;;;;;6151299;28;19929;-53
2023/03/13 03:24:30;;;;;;;;;;;21.30;53.30;;;;;;6150748;28;19929;-52
2023/03/13 03:27:32;;;;;;;;;;;21.40;53.50;;;;;;6150987;28;19922;-52
2023/03/13 03:30:33;;;;;;;;;;;21.60;53.60;;;;;;6151158;28;19922;-53
2023/03/13 03:33:35;;;;;;;;;;;21.10;53.40;;;;;;6150620;28;20367;-51
2023/03/13 03:36:41;;;;;;;;;;;21.50;53.50;;;;;;6151131;28;20315;-53
2023/03/13 03:39:43;;;;;;;;;;;21.40;53.40;;;;;;6150708;29;19926;-52
2023/03/13 03:42:45;;;;;;;;;;;21.20;53.40;;;;;;6150343;28;19926;-51
2023/03/13 03:45:46;;;;;;;;;;;21.20;53.40;;;;;;6150778;28;20350;-51
2023/03/13 03:48:48;;;;;;;;;;;21.10;53.40;;;;;;6150577;28;19923;-53
2023/03/13 03:51:49;;;;;;;;;;;21.30;53.50;;;;;;6150300;28;20378;-53
2023/03/13 03:54:56;;;;;;;;;;;21.20;53.50;;;;;;6150676;28;19922;-53
2023/03/13 03:57:58;;;;;;;;;;;21.50;53.70;;;;;;6150468;28;19922;-50
2023/03/13 04:01:19;;;;;;;;;;;21.60;53.80;;;;;;6150323;28;20279;-51
2023/03/13 04:04:20;;;;;;;;;;;21.50;53.70;;;;;;6150530;28;19930;-52
2023/03/13 04:07:27;;;;;;;;;;;21.20;53.60;;;;;;6150270;28;20386;-52
2023/03/13 04:10:28;;;;;;;;;;;21.20;53.50;;;;;;6150200;28;19922;-52
2023/03/13 04:13:33;;;;;;;;;;;21.20;53.60;;;;;;6150407;28;19930;-52
2023/03/13 04:16:34;;;;;;;;;;;21.20;53.60;;;;;;6150053;28;19923;-50
2023/03/13 04:19:36;;;;;;;;;;;21.10;53.50;;;;;;6149327;28;19923;-51
2023/03/13 04:22:37;;;;;;;;;;;21.10;53.60;;;;;;6150339;28;20383;-53
2023/03/13 04:25:39;;;;;;;;;;;21.40;53.80;;;;;;6151743;28;19926;-50
2023/03/13 04:28:44;;;;;;;;;;;21.40;53.90;;;;;;6154078;28;20347;-50
2023/03/13 04:31:50;;;;;;;;;;;21.70;53.90;;;;;;6153831;28;20294;-50
2023/03/13 04:35:03;;;;;;;;;;;21.30;53.60;;;;;;6154333;29;19922;-52
2023/03/13 04:38:15;;;;;;;;;;;21.60;53.70;;;;;;6153826;28;20371;-49
2023/03/13 04:41:27;;;;;;;;;;;21.30;53.60;;;;;;6153718;28;19928;-50
2023/03/13 04:44:49;;;;;;;;;;;21.30;53.70;;;;;;6153970;28;19926;-50
2023/03/13 04:48:10;;;;;;;;;;;21.20;53.60;;;;;;6153615;28;19930;-51
2023/03/13 04:51:18;;;;;;;;;;;21.30;53.80;;;;;;6153455;28;19923;-49
2023/03/13 04:54:30;;;;;;;;;;;21.20;54.40;;;;;;6153778;28;20335;-52
2023/03/13 04:57:48;;;;;;;;;;;21.20;53.70;;;;;;6153655;28;20001;-50
2023/03/13 05:05:44;;;;;;;;;;;21.60;52.90;;;;;;6153335;29;19911;-50
2023/03/13 05:09:05;;;;;;;;;;;21.40;54.00;;;;;;6153220;28;19922;-51
2023/03/13 05:12:21;;;;;;;;;;;21.10;53.80;;;;;;6152032;28;19973;-50
2023/03/13 05:15:31;;;;;;;;;;;21.00;53.90;;;;;;6153090;28;19930;-51
2023/03/13 05:18:48;;;;;;;;;;;21.30;54.10;;;;;;6153441;28;20446;-48
2023/03/13 05:22:09;;;;;;;;;;;21.10;54.00;;;;;;6152922;28;19930;-47
2023/03/13 05:25:28;;;;;;;;;;;21.20;54.60;;;;;;6153014;28;19965;-46
2023/03/13 05:28:48;;;;;;;;;;;21.50;54.10;;;;;;6152802;28;19929;-49
2023/03/13 05:32:02;;;;;;;;;;;21.30;54.20;;;;;;6153012;28;19958;-52
2023/03/13 05:35:14;;;;;;;;;;;21.60;54.40;;;;;;6153103;28;19968;-49
2023/03/13 05:38:28;;;;;;;;;;;21.20;54.20;;;;;;6151702;28;19923;-49
2023/03/13 05:41:48;;;;;;;;;;;21.20;54.10;;;;;;6152475;28;19969;-50
2023/03/13 05:45:08;;;;;;;;;;;21.10;54.00;;;;;;6152651;28;19973;-50
2023/03/13 05:48:28;;;;;;;;;;;21.00;54.00;;;;;;6151275;29;19978;-48
2023/03/13 05:51:48;;;;;;;;;;;21.20;54.30;;;;;;6152583;28;19966;-52
2023/03/13 05:55:00;;;;;;;;;;;21.30;54.30;;;;;;6152600;28;19977;-51
2023/03/13 05:58:20;;;;;;;;;;;21.40;54.30;;;;;;6152237;28;20017;-49
2023/03/13 06:01:27;;;;;;;;;;;21.50;54.30;;;;;;6152564;28;19922;-51
2023/03/13 06:04:36;;;;;;;;;;;21.20;54.20;;;;;;6152349;28;19926;-47
2023/03/13 06:07:37;;;;;;;;;;;21.10;54.30;;;;;;6152224;28;20437;-49
2023/03/13 06:10:39;;;;;;;;;;;21.10;54.20;;;;;;6152480;28;19930;-51
2023/03/13 06:13:41;;;;;;;;;;;21.60;54.40;;;;;;6152280;28;20390;-47
2023/03/13 06:16:53;;;;;;;;;;;21.10;54.20;;;;;;6151934;28;19957;-50
2023/03/13 06:19:56;;;;;;;;;;;21.00;54.20;;;;;;6151733;28;20013;-47
2023/03/13 06:23:00;;;;;;;;;;;21.10;54.30;;;;;;6152065;28;19923;-51
2023/03/13 06:26:02;;;;;;;;;;;21.60;54.50;;;;;;6152536;28;20359;-49
2023/03/13 06:29:03;;;;;;;;;;;21.00;54.10;;;;;;6152091;28;19973;-48
2023/03/13 06:32:05;;;;;;;;;;;21.60;54.50;;;;;;6152240;28;20259;-50
2023/03/13 06:35:07;;;;;;;;;;;21.10;54.10;;;;;;6151725;28;20298;-50
2023/03/13 06:38:10;;;;;;;;;;;21.00;54.20;;;;;;6151395;28;20387;-49
2023/03/13 06:41:12;;;;;;;;;;;21.20;54.30;;;;;;6151776;28;19973;-51
2023/03/13 06:44:13;;;;;;;;;;;21.50;54.50;;;;;;6151559;28;19923;-52
2023/03/13 06:47:15;;;;;;;;;;;21.00;54.20;;;;;;6151096;28;19922;-51
2023/03/13 06:50:16;;;;;;;;;;;21.00;54.30;;;;;;6151890;28;19923;-49
2023/03/13 06:53:18;;;;;;;;;;;21.10;54.20;;;;;;6149986;29;20364;-52
2023/03/13 06:56:20;;;;;;;;;;;21.60;54.40;;;;;;6149803;29;19974;-49
2023/03/13 06:59:22;;;;;;;;;;;21.20;54.20;;;;;;6151512;28;19969;-51
2023/03/13 07:02:23;;;;;;;;;;;21.60;54.50;;;;;;6151490;28;20272;-46
2023/03/13 07:05:25;;;;;;;;;;;21.10;54.20;;;;;;6150593;28;20323;-53
2023/03/13 07:08:26;;;;;;;;;;;21.50;54.40;;;;;;6151335;28;19923;-51
2023/03/13 07:11:28;;;;;;;;;;;21.10;54.20;;;;;;6150771;28;19929;-50
2023/03/13 07:14:30;;;;;;;;;;;21.40;54.20;;;;;;6150410;28;20367;-51
2023/03/13 07:17:31;;;;;;;;;;;21.20;54.10;;;;;;6151155;28;20264;-51
2023/03/13 07:20:33;;;;;;;;;;;21.60;54.20;;;;;;6150529;28;19922;-50
2023/03/13 07:23:34;;;;;;;;;;;21.30;53.80;;;;;;6150669;28;19926;-47
2023/03/13 07:26:37;;;;;;;;;;;21.60;54.00;;;;;;6150611;28;19923;-50
2023/03/13 07:29:39;;;;;;;;;;;21.30;53.90;;;;;;6150225;28;20022;-52
2023/03/13 07:32:40;;;;;;;;;;;21.70;54.00;;;;;;6150061;28;19922;-49
2023/03/13 07:35:47;;;;;;;;;;;21.30;53.80;;;;;;6150601;28;19922;-49
2023/03/13 07:38:49;;;;;;;;;;;21.70;53.80;;;;;;6150226;28;19922;-50
2023/03/13 07:41:51;;;;;;;;;;;21.50;53.60;;;;;;6150099;28;19929;-51
2023/03/13 07:44:52;;;;;;;;;;;21.80;54.00;;;;;;6149854;28;19945;-51
2023/03/13 07:47:54;;;;;;;;;;;21.30;53.60;;;;;;6150087;28;20007;-52
2023/03/13 07:50:55;;;;;;;;;;;21.50;53.60;;;;;;6149782;28;19929;-50
2023/03/13 07:53:57;;;;;;;;;;;21.30;53.40;;;;;;6150031;29;20411;-48
2023/03/13 07:57:00;;;;;;;;;;;21.70;53.50;;;;;;6149546;28;19922;-48
2023/03/13 08:00:01;;;;;;;;;;;21.30;53.50;;;;;;6150377;28;19929;-48
2023/03/13 08:03:13;;;;;;;;;;;21.50;53.60;;;;;;6154113;28;19922;-48
2023/03/13 08:06:15;;;;;;;;;;;21.40;53.30;;;;;;6153756;28;19922;-48
2023/03/13 08:09:17;;;;;;;;;;;22.00;53.80;;;;;;6153555;28;20291;-46
2023/03/13 08:12:19;;;;;;;;;;;21.80;53.50;;;;;;6153531;28;19946;-49
2023/03/13 08:15:24;;;;;;;;;;;21.80;53.40;;;;;;6153381;28;19922;-49
2023/03/13 08:18:26;;;;;;;;;;;21.50;53.10;;;;;;6153342;28;19923;-46
2023/03/13 08:21:28;;;;;;;;;;;21.80;53.40;;;;;;6153283;28;20391;-47
2023/03/13 08:24:29;;;;;;;;;;;21.60;53.20;;;;;;6153212;28;19926;-52
2023/03/13 08:27:32;;;;;;;;;;;21.50;53.00;;;;;;6153258;28;19969;-47
2023/03/13 08:30:34;;;;;;;;;;;21.70;53.00;;;;;;6155759;28;19922;-50
2023/03/13 08:33:36;;;;;;;;;;;21.90;53.20;;;;;;6154426;28;19929;-54
2023/03/13 08:36:37;;;;;;;;;;;21.50;52.90;;;;;;6153137;28;19930;-54
2023/03/13 08:39:39;;;;;;;;;;;22.10;53.10;;;;;;6154782;28;19922;-54
2023/03/13 08:42:41;;;;;;;;;;;21.50;53.30;;;;;;6154453;28;19926;-53
2023/03/13 08:45:44;;;;;;;;;;;22.00;53.10;;;;;;6154165;28;19973;-55
2023/03/13 08:48:48;;;;;;;;;;;21.80;52.90;;;;;;6153605;28;19929;-54
2023/03/13 08:51:49;;;;;;;;;;;21.90;52.90;;;;;;6154316;28;19927;-50
2023/03/13 08:54:50;;;;;;;;;;;21.90;53.00;;;;;;6157229;28;19929;-46
2023/03/13 08:57:52;;;;;;;;;;;22.00;53.00;;;;;;6157116;28;19922;-49
2023/03/13 09:00:54;;;;;;;;;;;21.70;52.70;;;;;;6154083;28;20359;-51
2023/03/13 09:03:55;;;;;;;;;;;22.00;52.70;;;;;;6153125;28;19922;-51
2023/03/13 09:06:57;;;;;;;;;;;21.90;52.70;;;;;;6152779;29;19922;-52
2023/03/13 09:09:58;;;;;;;;;;;22.20;52.80;;;;;;6152986;28;20405;-50
2023/03/13 09:13:00;;;;;;;;;;;22.00;52.70;;;;;;6152469;28;19933;-50
2023/03/13 09:16:02;;;;;;;;;;;22.10;52.60;;;;;;6152910;28;19929;-53
2023/03/13 09:19:04;;;;;;;;;;;22.10;52.60;;;;;;6151548;29;19923;-51
2023/03/13 09:22:05;;;;;;;;;;;22.20;52.60;;;;;;6151655;28;19922;-53
2023/03/13 09:25:07;;;;;;;;;;;21.90;52.50;;;;;;6152564;29;19922;-54
2023/03/13 09:28:09;;;;;;;;;;;22.10;52.50;;;;;;6153257;28;19940;-54
2023/03/13 09:31:11;;;;;;;;;;;22.10;52.50;;;;;;6152426;28;19926;-50
2023/03/13 09:34:14;;;;;;;;;;;22.30;52.50;;;;;;6152868;28;19922;-47
2023/03/13 09:37:15;;;;;;;;;;;22.00;52.30;;;;;;6152540;28;19922;-51
2023/03/13 09:40:18;;;;;;;;;;;22.30;52.50;;;;;;6152525;28;20374;-51
2023/03/13 09:43:25;;;;;;;;;;;21.80;52.10;;;;;;6151270;29;19922;-48
2023/03/13 09:46:32;;;;;;;;;;;22.30;52.20;;;;;;6153155;28;19995;-49
2023/03/13 09:49:35;;;;;;;;;;;21.90;52.00;;;;;;6150854;29;20378;-52
2023/03/13 09:52:39;;;;;;;;;;;22.30;52.20;;;;;;6151974;28;19922;-52
2023/03/13 09:55:43;;;;;;;;;;;22.00;52.10;;;;;;6152145;28;19922;-52
2023/03/13 09:58:49;;;;;;;;;;;22.30;52.30;;;;;;6151963;28;19933;-52
2023/03/13 10:01:53;;;;;;;;;;;22.00;52.10;;;;;;6152041;28;19927;-49
2023/03/13 10:05:00;;;;;;;;;;;22.30;52.20;;;;;;6150604;29;20118;-53
2023/03/13 10:08:09;;;;;;;;;;;21.90;51.90;;;;;;6151992;28;19923;-52
2023/03/13 10:11:11;;;;;;;;;;;22.30;52.00;;;;;;6152282;28;19926;-51
2023/03/13 10:14:16;;;;;;;;;;;22.00;51.90;;;;;;6151509;28;19923;-52
2023/03/13 10:17:21;;;;;;;;;;;22.20;51.90;;;;;;6151675;28;20290;-50
2023/03/13 10:20:24;;;;;;;;;;;22.10;51.80;;;;;;6151679;28;19923;-51
2023/03/13 10:23:34;;;;;;;;;;;22.40;51.80;;;;;;6151031;28;19922;-53
2023/03/13 10:26:36;;;;;;;;;;;22.10;51.70;;;;;;6151505;28;19922;-52
2023/03/13 10:29:38;;;;;;;;;;;22.40;51.80;;;;;;6150326;29;20033;-52
2023/03/13 10:32:40;;;;;;;;;;;22.50;51.90;;;;;;6150741;28;19927;-53
2023/03/13 10:35:45;;;;;;;;;;;22.50;51.80;;;;;;6151110;28;20375;-50
2023/03/13 10:38:48;;;;;;;;;;;22.20;51.50;;;;;;6150513;28;19978;-47
2023/03/13 10:41:50;;;;;;;;;;;22.40;51.60;;;;;;6149412;29;19930;-52
2023/03/13 10:44:57;;;;;;;;;;;22.20;51.50;;;;;;6151117;28;20264;-52
2023/03/13 10:48:00;;;;;;;;;;;22.50;51.50;;;;;;6151406;28;19922;-52
2023/03/13 10:51:01;;;;;;;;;;;22.30;51.30;;;;;;6150802;28;20319;-51
2023/03/13 10:54:14;;;;;;;;;;;22.30;51.30;;;;;;6151103;28;19922;-49
2023/03/13 10:57:27;;;;;;;;;;;22.40;51.20;;;;;;6151231;29;20010;-50
2023/03/13 11:00:35;;;;;;;;;;;22.60;51.30;;;;;;6151227;28;19977;-51
2023/03/13 11:03:36;;;;;;;;;;;22.60;51.30;;;;;;6149416;28;19922;-53
2023/03/13 11:06:38;;;;;;;;;;;22.50;51.00;;;;;;6150793;28;20251;-49
2023/03/13 11:09:39;;;;;;;;;;;22.50;51.10;;;;;;6150538;28;20380;-50
2023/03/13 11:12:43;;;;;;;;;;;22.60;51.10;;;;;;6150582;28;19922;-53
2023/03/13 11:15:49;;;;;;;;;;;22.60;51.00;;;;;;6150770;28;19949;-50
2023/03/13 11:18:57;;;;;;;;;;;22.70;51.10;;;;;;6150353;28;19929;-51
2023/03/13 11:22:05;;;;;;;;;;;22.40;50.90;;;;;;6150671;28;20294;-52
2023/03/13 11:25:12;;;;;;;;;;;22.60;51.00;;;;;;6150846;28;20041;-50
2023/03/13 11:28:24;;;;;;;;;;;22.70;51.00;;;;;;6149155;28;19923;-50
2023/03/13 11:31:28;;;;;;;;;;;22.70;51.10;;;;;;6150224;28;19930;-51
2023/03/13 11:34:33;;;;;;;;;;;22.60;51.00;;;;;;6151315;28;19926;-53
2023/03/13 11:37:35;;;;;;;;;;;22.70;51.00;;;;;;6154771;28;19989;-50
2023/03/13 11:40:41;;;;;;;;;;;22.70;51.00;;;;;;6155041;28;19922;-52
2023/03/13 11:43:49;;;;;;;;;;;22.40;50.70;;;;;;6153186;28;19922;-50
2023/03/13 11:46:56;;;;;;;;;;;22.20;50.70;;;;;;6153129;28;19938;-53
2023/03/13 11:50:02;;;;;;;;;;;22.70;51.00;;;;;;6152863;28;19922;-49
2023/03/13 11:53:20;;;;;;;;;;;22.60;50.80;;;;;;6154249;28;19923;-50
2023/03/13 11:56:26;;;;;;;;;;;21.70;50.80;;;;;;6154555;28;19922;-50
2023/03/13 11:59:34;;;;;;;;;;;22.30;51.30;;;;;;6152921;28;19922;-49
2023/03/13 12:02:40;;;;;;;;;;;24.00;51.60;;;;;;6152857;28;19922;-46
2023/03/13 12:05:45;;;;;;;;;;;22.80;50.70;;;;;;6136922;29;20331;-49
2023/03/13 12:08:48;;;;;;;;;;;22.80;50.90;;;;;;6152603;28;19973;-49
2023/03/13 12:11:54;;;;;;;;;;;22.80;50.80;;;;;;6153940;28;19949;-52
2023/03/13 12:15:01;;;;;;;;;;;22.80;50.80;;;;;;6153964;28;19945;-48
2023/03/13 12:18:05;;;;;;;;;;;22.60;50.60;;;;;;6153695;28;19922;-54
2023/03/13 12:21:13;;;;;;;;;;;22.90;50.80;;;;;;6153783;28;20016;-51
2023/03/13 12:24:22;;;;;;;;;;;22.60;50.50;;;;;;6153501;28;20410;-52
2023/03/13 12:27:25;;;;;;;;;;;22.90;50.60;;;;;;6152004;29;19959;-52
2023/03/13 12:30:30;;;;;;;;;;;22.50;50.40;;;;;;6153376;28;19973;-54
2023/03/13 12:33:35;;;;;;;;;;;23.00;50.60;;;;;;6153222;28;19922;-60
2023/03/13 12:36:39;;;;;;;;;;;22.70;50.40;;;;;;6157116;28;19922;-57
2023/03/13 12:39:42;;;;;;;;;;;22.90;50.40;;;;;;6152929;28;19926;-56
2023/03/13 12:42:48;;;;;;;;;;;22.70;50.30;;;;;;6154184;28;19962;-57
2023/03/13 12:46:00;;;;;;;;;;;22.90;50.20;;;;;;6153036;28;20398;-58
2023/03/13 12:49:11;;;;;;;;;;;23.00;50.30;;;;;;6153285;28;19928;-54
2023/03/13 12:52:31;;;;;;;;;;;23.00;50.30;;;;;;6153733;28;20334;-56
2023/03/13 12:55:39;;;;;;;;;;;22.80;50.10;;;;;;6153216;28;19922;-54
2023/03/13 12:58:44;;;;;;;;;;;23.10;50.20;;;;;;6153698;28;19926;-54
2023/03/13 13:01:47;;;;;;;;;;;22.80;50.00;;;;;;6152859;28;19933;-52
2023/03/13 13:04:52;;;;;;;;;;;23.00;50.10;;;;;;6154321;28;19958;-55
2023/03/13 13:07:55;;;;;;;;;;;22.80;49.90;;;;;;6153307;28;19922;-56
2023/03/13 13:11:11;;;;;;;;;;;22.90;49.90;;;;;;6154283;28;19923;-53
2023/03/13 13:14:27;;;;;;;;;;;23.10;49.90;;;;;;6155758;29;20294;-55
2023/03/13 13:17:46;;;;;;;;;;;22.80;49.70;;;;;;6184388;23;20736;-58
2023/03/13 13:21:08;;;;;;;;;;;23.10;49.80;;;;;;6131015;29;20375;-56
2023/03/13 13:24:25;;;;;;;;;;;23.10;49.80;;;;;;6139242;28;19923;-59
2023/03/13 13:27:27;;;;;;;;;;;22.90;49.70;;;;;;6129867;29;19923;-61
2023/03/13 13:30:31;;;;;;;;;;;23.20;49.80;;;;;;6096969;29;20300;-59
2023/03/13 13:33:35;;;;;;;;;;;22.80;49.50;;;;;;6127578;29;19923;-59
2023/03/13 13:36:41;;;;;;;;;;;23.00;49.50;;;;;;6129401;29;20260;-57
2023/03/13 13:39:46;;;;;;;;;;;23.30;49.60;;;;;;6128893;29;20377;-58
2023/03/13 13:42:50;;;;;;;;;;;23.50;49.70;;;;;;6128893;29;20264;-57
2023/03/13 13:45:58;;;;;;;;;;;23.00;49.40;;;;;;6126671;29;20299;-61
2023/03/13 13:49:13;;;;;;;;;;;23.10;49.30;;;;;;6128027;29;19926;-56
2023/03/13 13:52:26;;;;;;;;;;;23.20;49.60;;;;;;6128090;29;19922;-59
2023/03/13 13:55:31;;;;;;;;;;;23.30;49.40;;;;;;6128118;29;19957;-59
2023/03/13 13:58:38;;;;;;;;;;;23.20;49.30;;;;;;6127907;29;20331;-56
2023/03/13 14:01:40;;;;;;;;;;;23.30;49.40;;;;;;6128770;29;19923;-56
2023/03/13 14:04:45;;;;;;;;;;;23.30;49.30;;;;;;6127168;29;19923;-56
2023/03/13 14:07:53;;;;;;;;;;;23.10;49.20;;;;;;6127822;29;20006;-54
2023/03/13 14:11:04;;;;;;;;;;;23.30;49.30;;;;;;6126694;29;19922;-56
2023/03/13 14:14:08;;;;;;;;;;;23.10;49.10;;;;;;6128492;29;19929;-55
2023/03/13 14:17:09;;;;;;;;;;;23.30;49.20;;;;;;6126256;29;19923;-55
2023/03/13 14:20:26;;;;;;;;;;;23.00;49.10;;;;;;6128105;29;19930;-53
2023/03/13 14:23:29;;;;;;;;;;;23.10;49.10;;;;;;6126694;29;19923;-55
2023/03/13 14:26:41;;;;;;;;;;;23.50;49.30;;;;;;6126997;29;19922;-55
2023/03/13 14:29:51;;;;;;;;;;;23.30;49.20;;;;;;6128171;29;19930;-55
2023/03/13 14:32:53;;;;;;;;;;;23.30;49.10;;;;;;6127469;29;19933;-56
2023/03/13 14:35:56;;;;;;;;;;;23.30;49.10;;;;;;6128977;29;19931;-55
2023/03/13 14:38:58;;;;;;;;;;;23.30;49.10;;;;;;6127489;29;19923;-58
2023/03/13 14:42:01;;;;;;;;;;;23.40;49.00;;;;;;6126860;29;19945;-53
2023/03/13 14:45:11;;;;;;;;;;;23.20;49.20;;;;;;6127373;29;19966;-56
2023/03/13 14:48:15;;;;;;;;;;;23.30;48.90;;;;;;6127372;28;19930;-56
2023/03/13 14:51:19;;;;;;;;;;;23.30;48.90;;;;;;6127158;29;19923;-56
2023/03/13 14:54:24;;;;;;;;;;;23.30;48.90;;;;;;6127883;29;19923;-55
2023/03/13 14:57:26;;;;;;;;;;;23.30;48.80;;;;;;6126146;29;19948;-55
2023/03/13 15:00:31;;;;;;;;;;;23.30;49.00;;;;;;6127257;29;19923;-54
2023/03/13 15:03:33;;;;;;;;;;;23.40;49.00;;;;;;6128268;29;19986;-53
2023/03/13 15:06:34;;;;;;;;;;;23.30;48.90;;;;;;6127690;29;19922;-54
2023/03/13 15:09:40;;;;;;;;;;;23.20;48.90;;;;;;6137640;28;19914;-45
2023/03/13 15:19:48;;;;;;;;;;;23.40;48.90;;;;;;7304387;23;19927;-47
2023/03/13 15:22:49;;;;;;;;;;;23.20;48.80;;;;;;6147807;29;19929;-46
2023/03/13 15:25:51;;;;;;;;;;;23.20;48.80;;;;;;6145786;29;19946;-43
2023/03/13 15:28:52;;;;;;;;;;;23.40;48.90;;;;;;6149467;29;19906;-44
2023/03/13 15:31:53;;;;;;;;;;;23.20;48.80;;;;;;6151310;29;19923;-47
2023/03/13 15:34:57;;;;;;;;;;;23.50;49.00;;;;;;6148884;29;19922;-48
2023/03/13 15:37:59;;;;;;;;;;;23.10;48.70;;;;;;6143224;29;19942;-47
2023/03/13 15:41:00;;;;;;;;;;;23.50;48.90;;;;;;6149478;29;19930;-49
2023/03/13 15:44:06;;;;;;;;;;;23.20;48.70;;;;;;6141392;23;19923;31
2023/03/13 15:47:11;;;;;;;;;;;23.40;48.70;;;;;;6149263;28;20404;-52
2023/03/13 15:50:15;;;;;;;;;;;23.30;48.70;;;;;;6150455;28;19922;-50
2023/03/13 15:53:18;;;;;;;;;;;23.40;48.70;;;;;;6148775;29;20375;-52
2023/03/13 15:56:22;;;;;;;;;;;23.20;48.60;;;;;;6150694;29;20374;-50
2023/03/13 15:59:23;;;;;;;;;;;23.40;48.70;;;;;;6155416;29;19923;-51
2023/03/13 16:02:24;;;;;;;;;;;23.30;48.70;;;;;;6152947;28;19922;-51
2023/03/13 16:05:27;;;;;;;;;;;23.40;48.70;;;;;;6150568;28;20294;-46
2023/03/13 16:08:29;;;;;;;;;;;23.20;48.50;;;;;;6150186;28;20033;-48
2023/03/13 16:11:38;;;;;;;;;;;23.30;48.60;;;;;;6143757;29;19923;-47
2023/03/13 16:14:39;;;;;;;;;;;23.50;48.70;;;;;;6125929;29;20331;-44
2023/03/13 16:17:41;;;;;;;;;;;23.40;48.60;;;;;;6126326;29;20274;-48
2023/03/13 16:20:43;;;;;;;;;;;23.40;48.60;;;;;;6127615;29;19937;-49
2023/03/13 16:23:45;;;;;;;;;;;23.50;48.60;;;;;;6130853;29;19965;-48
2023/03/13 16:26:46;;;;;;;;;;;23.30;48.50;;;;;;6130183;29;19926;-46
2023/03/13 16:29:47;;;;;;;;;;;23.40;48.50;;;;;;6130496;29;19930;-47
2023/03/13 16:32:49;;;;;;;;;;;23.40;48.50;;;;;;6130102;29;20454;-44
2023/03/13 16:35:53;;;;;;;;;;;23.50;48.40;;;;;;6131010;29;19981;-50
2023/03/13 16:38:54;;;;;;;;;;;23.40;48.40;;;;;;6132106;29;19939;-49
2023/03/13 16:41:56;;;;;;;;;;;23.30;48.30;;;;;;6130255;29;19926;-50
2023/03/13 16:44:58;;;;;;;;;;;23.30;48.30;;;;;;6130054;29;19930;-47
2023/03/13 16:47:59;;;;;;;;;;;23.70;48.50;;;;;;6129615;29;20283;-51
2023/03/13 16:51:03;;;;;;;;;;;23.40;48.30;;;;;;6128770;29;19927;-51
2023/03/13 16:54:10;;;;;;;;;;;23.50;48.40;;;;;;6129468;29;20346;-50
2023/03/13 16:57:13;;;;;;;;;;;23.40;48.40;;;;;;6129039;29;19922;-48
2023/03/13 17:00:16;;;;;;;;;;;23.50;48.40;;;;;;6129557;29;20371;-46
2023/03/13 17:03:17;;;;;;;;;;;23.30;48.30;;;;;;6128361;29;19946;-45
2023/03/13 17:06:20;;;;;;;;;;;23.50;48.40;;;;;;6129597;29;19923;-50
2023/03/13 17:09:22;;;;;;;;;;;23.40;48.30;;;;;;6128194;29;19923;-48
2023/03/13 17:12:23;;;;;;;;;;;23.50;48.40;;;;;;6129541;29;19995;-48
2023/03/13 17:15:28;;;;;;;;;;;23.50;48.30;;;;;;6129209;29;20013;-49
2023/03/13 17:18:30;;;;;;;;;;;23.60;48.30;;;;;;6128887;29;19923;-46
2023/03/13 17:21:32;;;;;;;;;;;23.30;48.20;;;;;;6129358;29;19923;-46
2023/03/13 17:24:33;;;;;;;;;;;23.70;48.30;;;;;;6129116;29;19922;-48
2023/03/13 17:27:34;;;;;;;;;;;23.40;48.10;;;;;;6129031;29;19946;-47
2023/03/13 17:30:36;;;;;;;;;;;23.40;48.10;;;;;;6129314;29;19961;-49
2023/03/13 17:33:37;;;;;;;;;;;23.40;48.10;;;;;;6128690;29;20371;-50
2023/03/13 17:36:39;;;;;;;;;;;23.70;48.30;;;;;;6129219;29;20366;-50
2023/03/13 17:39:42;;;;;;;;;;;23.60;48.20;;;;;;6129324;29;20009;-46
2023/03/13 17:42:45;;;;;;;;;;;23.80;48.30;;;;;;6129417;29;20305;-49
2023/03/13 17:45:49;;;;;;;;;;;23.20;48.00;;;;;;6129769;29;20371;-51
2023/03/13 17:48:56;;;;;;;;;;;23.50;48.10;;;;;;6129670;29;20010;-48
2023/03/13 17:51:57;;;;;;;;;;;23.50;48.20;;;;;;6127299;29;19993;-50
2023/03/13 17:54:59;;;;;;;;;;;23.50;48.20;;;;;;6128404;29;19922;-46
2023/03/13 17:58:00;;;;;;;;;;;23.50;48.20;;;;;;6128679;29;19923;-47
2023/03/13 18:01:02;;;;;;;;;;;23.60;48.30;;;;;;6128516;29;19973;-49
2023/03/13 18:04:06;;;;;;;;;;;23.20;48.10;;;;;;6129210;29;19929;-50